sensor_id;sensor_type;location;lat;lon;timestamp;pressure;altitude;pressure_sealevel;temperature;humidity
80333;BME280;69652;51.864;-2.246;2023-05-10T00:00:16;101082.19;;;10.75;88.21
80333;BME280;69652;51.864;-2.246;2023-05-10T00:02:42;101078.88;;;10.78;88.87
80333;BME280;69652;51.864;-2.246;2023-05-10T00:05:08;101079.91;;;10.82;89.25
80333;BME280;69652;51.864;-2.246;2023-05-10T00:07:33;101079.81;;;10.88;88.24
80333;BME280;69652;51.864;-2.246;2023-05-10T00:09:58;101072.28;;;10.84;87.83
80333;BME280;69652;51.864;-2.246;2023-05-10T00:12:24;101081.88;;;10.77;87.40
80333;BME280;69652;51.864;-2.246;2023-05-10T00:14:49;101078.38;;;10.76;88.04
80333;BME280;69652;51.864;-2.246;2023-05-10T00:17:15;101077.38;;;10.72;87.93
80333;BME280;69652;51.864;-2.246;2023-05-10T00:19:40;101080.16;;;10.67;87.90
80333;BME280;69652;51.864;-2.246;2023-05-10T00:22:06;101080.72;;;10.64;88.15
80333;BME280;69652;51.864;-2.246;2023-05-10T00:24:31;101075.38;;;10.59;87.26
80333;BME280;69652;51.864;-2.246;2023-05-10T00:26:57;101073.03;;;10.53;86.78
80333;BME280;69652;51.864;-2.246;2023-05-10T00:29:22;101072.84;;;10.49;87.55
80333;BME280;69652;51.864;-2.246;2023-05-10T00:31:47;101072.09;;;10.43;88.43
80333;BME280;69652;51.864;-2.246;2023-05-10T00:34:13;101075.38;;;10.40;87.66
80333;BME280;69652;51.864;-2.246;2023-05-10T00:36:39;101075.19;;;10.37;88.43
80333;BME280;69652;51.864;-2.246;2023-05-10T00:39:04;101075.25;;;10.32;88.35
80333;BME280;69652;51.864;-2.246;2023-05-10T00:41:33;101070.69;;;10.27;89.16
80333;BME280;69652;51.864;-2.246;2023-05-10T00:43:59;101073.72;;;10.26;88.79
80333;BME280;69652;51.864;-2.246;2023-05-10T00:46:25;101081.03;;;10.25;88.24
80333;BME280;69652;51.864;-2.246;2023-05-10T00:48:51;101062.41;;;10.19;88.78
80333;BME280;69652;51.864;-2.246;2023-05-10T00:51:17;101077.91;;;10.13;88.86
80333;BME280;69652;51.864;-2.246;2023-05-10T00:53:45;101077.44;;;10.06;88.63
80333;BME280;69652;51.864;-2.246;2023-05-10T00:56:11;101083.47;;;10.03;89.05
80333;BME280;69652;51.864;-2.246;2023-05-10T00:58:37;101085.66;;;10.01;89.59
80333;BME280;69652;51.864;-2.246;2023-05-10T01:01:04;101081.78;;;10.07;90.70
80333;BME280;69652;51.864;-2.246;2023-05-10T01:03:30;101078.78;;;10.08;89.18
80333;BME280;69652;51.864;-2.246;2023-05-10T01:05:56;101086.38;;;10.06;89.78
80333;BME280;69652;51.864;-2.246;2023-05-10T01:08:22;101093.72;;;10.06;89.41
80333;BME280;69652;51.864;-2.246;2023-05-10T01:10:48;101088.59;;;10.04;88.80
80333;BME280;69652;51.864;-2.246;2023-05-10T01:13:30;101080.44;;;10.04;89.46
80333;BME280;69652;51.864;-2.246;2023-05-10T01:15:57;101082.66;;;10.02;89.27
80333;BME280;69652;51.864;-2.246;2023-05-10T01:18:24;101084.09;;;9.95;88.24
80333;BME280;69652;51.864;-2.246;2023-05-10T01:21:02;101085.00;;;9.90;88.86
80333;BME280;69652;51.864;-2.246;2023-05-10T01:23:45;101092.06;;;9.86;88.18
80333;BME280;69652;51.864;-2.246;2023-05-10T01:29:21;101090.22;;;9.82;89.58
80333;BME280;69652;51.864;-2.246;2023-05-10T01:35:21;101086.53;;;9.72;90.20
80333;BME280;69652;51.864;-2.246;2023-05-10T01:40:21;101080.94;;;9.64;88.71
80333;BME280;69652;51.864;-2.246;2023-05-10T01:42:54;101089.66;;;9.61;88.80
80333;BME280;69652;51.864;-2.246;2023-05-10T01:45:24;101085.59;;;9.58;88.24
80333;BME280;69652;51.864;-2.246;2023-05-10T01:48:08;101085.38;;;9.55;89.30
80333;BME280;69652;51.864;-2.246;2023-05-10T01:50:37;101090.56;;;9.51;88.51
80333;BME280;69652;51.864;-2.246;2023-05-10T01:53:07;101091.94;;;9.49;89.17
80333;BME280;69652;51.864;-2.246;2023-05-10T01:55:36;101083.28;;;9.47;88.05
80333;BME280;69652;51.864;-2.246;2023-05-10T01:58:10;101083.28;;;9.47;88.59
80333;BME280;69652;51.864;-2.246;2023-05-10T02:00:39;101088.50;;;9.43;89.98
80333;BME280;69652;51.864;-2.246;2023-05-10T02:03:08;101081.50;;;9.37;89.31
80333;BME280;69652;51.864;-2.246;2023-05-10T02:05:36;101080.97;;;9.35;89.31
80333;BME280;69652;51.864;-2.246;2023-05-10T02:08:05;101089.38;;;9.33;89.59
80333;BME280;69652;51.864;-2.246;2023-05-10T02:10:34;101090.78;;;9.31;88.75
80333;BME280;69652;51.864;-2.246;2023-05-10T02:13:00;101092.16;;;9.28;89.39
80333;BME280;69652;51.864;-2.246;2023-05-10T02:15:27;101098.66;;;9.27;88.94
80333;BME280;69652;51.864;-2.246;2023-05-10T02:17:58;101098.13;;;9.25;88.90
80333;BME280;69652;51.864;-2.246;2023-05-10T02:20:26;101100.03;;;9.25;88.02
80333;BME280;69652;51.864;-2.246;2023-05-10T02:22:54;101098.69;;;9.22;89.02
80333;BME280;69652;51.864;-2.246;2023-05-10T02:25:22;101102.50;;;9.21;88.78
80333;BME280;69652;51.864;-2.246;2023-05-10T02:27:48;101091.91;;;9.25;89.84
80333;BME280;69652;51.864;-2.246;2023-05-10T02:30:16;101102.75;;;9.25;89.68
80333;BME280;69652;51.864;-2.246;2023-05-10T02:32:43;101102.50;;;9.21;89.36
80333;BME280;69652;51.864;-2.246;2023-05-10T02:35:10;101101.69;;;9.21;88.93
80333;BME280;69652;51.864;-2.246;2023-05-10T02:37:37;101106.59;;;9.19;89.69
80333;BME280;69652;51.864;-2.246;2023-05-10T02:40:05;101100.38;;;9.18;89.83
80333;BME280;69652;51.864;-2.246;2023-05-10T02:42:34;101101.22;;;9.14;88.74
80333;BME280;69652;51.864;-2.246;2023-05-10T02:45:02;101099.88;;;9.11;89.47
80333;BME280;69652;51.864;-2.246;2023-05-10T02:47:30;101109.63;;;9.12;89.82
80333;BME280;69652;51.864;-2.246;2023-05-10T02:49:56;101099.88;;;9.11;90.16
80333;BME280;69652;51.864;-2.246;2023-05-10T02:52:25;101103.66;;;9.10;88.98
80333;BME280;69652;51.864;-2.246;2023-05-10T02:54:55;101098.25;;;9.10;89.59
80333;BME280;69652;51.864;-2.246;2023-05-10T02:57:26;101102.06;;;9.09;89.84
80333;BME280;69652;51.864;-2.246;2023-05-10T02:59:52;101107.47;;;9.09;89.32
80333;BME280;69652;51.864;-2.246;2023-05-10T03:02:17;101103.66;;;9.10;89.44
80333;BME280;69652;51.864;-2.246;2023-05-10T03:04:43;101103.16;;;9.08;89.32
80333;BME280;69652;51.864;-2.246;2023-05-10T03:07:08;101106.09;;;9.12;88.45
80333;BME280;69652;51.864;-2.246;2023-05-10T03:09:34;101105.56;;;9.10;89.72
80333;BME280;69652;51.864;-2.246;2023-05-10T03:17:47;101112.03;;;9.14;90.07
80333;BME280;69652;51.864;-2.246;2023-05-10T03:20:24;101116.34;;;9.20;88.49
80333;BME280;69652;51.864;-2.246;2023-05-10T03:22:57;101110.34;;;9.23;89.14
80333;BME280;69652;51.864;-2.246;2023-05-10T03:25:26;101108.16;;;9.25;90.55
80333;BME280;69652;51.864;-2.246;2023-05-10T03:27:52;101111.91;;;9.29;89.48
80333;BME280;69652;51.864;-2.246;2023-05-10T03:30:19;101112.94;;;9.33;89.69
80333;BME280;69652;51.864;-2.246;2023-05-10T03:32:45;101109.94;;;9.34;90.01
80333;BME280;69652;51.864;-2.246;2023-05-10T03:35:12;101113.19;;;9.36;89.26
80333;BME280;69652;51.864;-2.246;2023-05-10T03:37:38;101111.28;;;9.37;90.09
80333;BME280;69652;51.864;-2.246;2023-05-10T03:40:04;101113.16;;;9.41;89.50
80333;BME280;69652;51.864;-2.246;2023-05-10T03:42:30;101112.63;;;9.39;89.78
80333;BME280;69652;51.864;-2.246;2023-05-10T03:44:55;101109.84;;;9.45;90.88
80333;BME280;69652;51.864;-2.246;2023-05-10T03:47:21;101106.66;;;9.43;90.34
80333;BME280;69652;51.864;-2.246;2023-05-10T03:49:46;101107.75;;;9.41;90.59
80333;BME280;69652;51.864;-2.246;2023-05-10T03:52:12;101112.63;;;9.39;89.70
80333;BME280;69652;51.864;-2.246;2023-05-10T03:54:37;101109.09;;;9.39;90.31
80333;BME280;69652;51.864;-2.246;2023-05-10T03:57:03;101112.63;;;9.39;90.58
80333;BME280;69652;51.864;-2.246;2023-05-10T03:59:29;101113.44;;;9.40;90.47
80333;BME280;69652;51.864;-2.246;2023-05-10T04:01:55;101102.88;;;9.38;89.78
80333;BME280;69652;51.864;-2.246;2023-05-10T04:04:20;101108.59;;;9.37;91.07
80333;BME280;69652;51.864;-2.246;2023-05-10T04:06:46;101109.16;;;9.34;90.80
80333;BME280;69652;51.864;-2.246;2023-05-10T04:09:12;101114.34;;;9.30;90.92
80333;BME280;69652;51.864;-2.246;2023-05-10T04:11:37;101119.75;;;9.30;91.10
80333;BME280;69652;51.864;-2.246;2023-05-10T04:14:03;101119.75;;;9.30;90.64
80333;BME280;69652;51.864;-2.246;2023-05-10T04:16:28;101118.44;;;9.28;90.26
80333;BME280;69652;51.864;-2.246;2023-05-10T04:18:54;101118.72;;;9.26;91.37
80333;BME280;69652;51.864;-2.246;2023-05-10T04:21:19;101115.19;;;9.26;90.60
80333;BME280;69652;51.864;-2.246;2023-05-10T04:23:45;101118.19;;;9.24;91.90
80333;BME280;69652;51.864;-2.246;2023-05-10T04:26:10;101116.84;;;9.22;91.94
80333;BME280;69652;51.864;-2.246;2023-05-10T04:28:36;101120.88;;;9.24;91.52
80333;BME280;69652;51.864;-2.246;2023-05-10T04:31:10;101118.72;;;9.26;91.24
80333;BME280;69652;51.864;-2.246;2023-05-10T04:33:36;101116.00;;;9.26;92.05
80333;BME280;69652;51.864;-2.246;2023-05-10T04:36:02;101123.31;;;9.26;92.40
80333;BME280;69652;51.864;-2.246;2023-05-10T04:38:28;101119.78;;;9.25;92.01
80333;BME280;69652;51.864;-2.246;2023-05-10T04:40:54;101130.88;;;9.29;92.49
80333;BME280;69652;51.864;-2.246;2023-05-10T04:43:19;101135.22;;;9.30;91.69
80333;BME280;69652;51.864;-2.246;2023-05-10T04:45:45;101133.81;;;9.32;92.46
80333;BME280;69652;51.864;-2.246;2023-05-10T04:48:10;101137.31;;;9.33;91.56
80333;BME280;69652;51.864;-2.246;2023-05-10T04:50:36;101133.53;;;9.34;91.38
80333;BME280;69652;51.864;-2.246;2023-05-10T04:53:02;101132.72;;;9.33;91.47
80333;BME280;69652;51.864;-2.246;2023-05-10T04:55:27;101134.88;;;9.36;91.88
80333;BME280;69652;51.864;-2.246;2023-05-10T04:57:53;101140.28;;;9.36;91.30
80333;BME280;69652;51.864;-2.246;2023-05-10T05:00:20;101138.66;;;9.35;92.38
80333;BME280;69652;51.864;-2.246;2023-05-10T05:02:46;101147.88;;;9.34;92.14
80333;BME280;69652;51.864;-2.246;2023-05-10T05:05:12;101148.41;;;9.36;92.38
80333;BME280;69652;51.864;-2.246;2023-05-10T05:07:37;101144.59;;;9.37;91.41
80333;BME280;69652;51.864;-2.246;2023-05-10T05:10:05;101158.94;;;9.43;91.92
80333;BME280;69652;51.864;-2.246;2023-05-10T05:12:31;101148.09;;;9.43;91.24
80333;BME280;69652;51.864;-2.246;2023-05-10T05:14:56;101156.44;;;9.47;91.37
80333;BME280;69652;51.864;-2.246;2023-05-10T05:17:22;101157.53;;;9.46;91.13
80333;BME280;69652;51.864;-2.246;2023-05-10T05:19:47;101157.50;;;9.51;91.97
80333;BME280;69652;51.864;-2.246;2023-05-10T05:22:13;101159.13;;;9.52;91.46
80333;BME280;69652;51.864;-2.246;2023-05-10T05:24:38;101162.34;;;9.54;90.95
80333;BME280;69652;51.864;-2.246;2023-05-10T05:27:04;101167.19;;;9.57;91.05
80333;BME280;69652;51.864;-2.246;2023-05-10T05:29:29;101161.75;;;9.57;90.96
80333;BME280;69652;51.864;-2.246;2023-05-10T05:31:55;101161.19;;;9.60;90.98
80333;BME280;69652;51.864;-2.246;2023-05-10T05:34:20;101163.34;;;9.63;90.43
80333;BME280;69652;51.864;-2.246;2023-05-10T05:36:47;101163.59;;;9.66;90.45
80333;BME280;69652;51.864;-2.246;2023-05-10T05:39:12;101161.69;;;9.67;91.43
80333;BME280;69652;51.864;-2.246;2023-05-10T05:41:38;101165.72;;;9.69;90.60
80333;BME280;69652;51.864;-2.246;2023-05-10T05:44:03;101164.56;;;9.75;90.89
80333;BME280;69652;51.864;-2.246;2023-05-10T05:46:28;101168.31;;;9.79;91.08
80333;BME280;69652;51.864;-2.246;2023-05-10T05:48:55;101178.59;;;9.83;90.78
80333;BME280;69652;51.864;-2.246;2023-05-10T05:51:20;101185.81;;;9.92;91.37
80333;BME280;69652;51.864;-2.246;2023-05-10T05:53:46;101187.94;;;9.95;90.32
80333;BME280;69652;51.864;-2.246;2023-05-10T05:56:11;101181.09;;;10.03;91.94
80333;BME280;69652;51.864;-2.246;2023-05-10T05:58:37;101183.56;;;9.99;90.26
80333;BME280;69652;51.864;-2.246;2023-05-10T06:01:02;101184.56;;;10.08;91.13
80333;BME280;69652;51.864;-2.246;2023-05-10T06:03:28;101185.38;;;10.09;90.22
80333;BME280;69652;51.864;-2.246;2023-05-10T06:05:53;101189.88;;;10.19;89.25
80333;BME280;69652;51.864;-2.246;2023-05-10T06:08:18;101185.75;;;10.26;89.78
80333;BME280;69652;51.864;-2.246;2023-05-10T06:10:44;101192.47;;;10.29;88.92
80333;BME280;69652;51.864;-2.246;2023-05-10T06:13:10;101189.28;;;10.45;90.39
80333;BME280;69652;51.864;-2.246;2023-05-10T06:15:35;101191.25;;;10.40;87.88
80333;BME280;69652;51.864;-2.246;2023-05-10T06:18:01;101189.41;;;10.59;89.97
80333;BME280;69652;51.864;-2.246;2023-05-10T06:20:27;101187.63;;;10.68;89.09
80333;BME280;69652;51.864;-2.246;2023-05-10T06:22:52;101190.88;;;10.70;88.23
80333;BME280;69652;51.864;-2.246;2023-05-10T06:25:18;101186.34;;;10.84;87.94
80333;BME280;69652;51.864;-2.246;2023-05-10T06:27:43;101193.50;;;10.75;86.34
80333;BME280;69652;51.864;-2.246;2023-05-10T06:30:10;101196.00;;;10.91;88.71
80333;BME280;69652;51.864;-2.246;2023-05-10T06:32:36;101199.75;;;10.95;85.84
80333;BME280;69652;51.864;-2.246;2023-05-10T06:35:01;101210.47;;;11.05;86.82
80333;BME280;69652;51.864;-2.246;2023-05-10T06:37:27;101210.75;;;11.03;84.42
80333;BME280;69652;51.864;-2.246;2023-05-10T06:39:52;101204.47;;;11.08;84.63
80333;BME280;69652;51.864;-2.246;2023-05-10T06:42:18;101215.44;;;10.98;83.73
80333;BME280;69652;51.864;-2.246;2023-05-10T06:44:43;101219.56;;;11.14;84.78
80333;BME280;69652;51.864;-2.246;2023-05-10T06:47:09;101216.13;;;11.27;86.70
80333;BME280;69652;51.864;-2.246;2023-05-10T06:49:34;101212.28;;;11.28;85.24
80333;BME280;69652;51.864;-2.246;2023-05-10T06:52:00;101214.19;;;11.28;86.04
80333;BME280;69652;51.864;-2.246;2023-05-10T06:54:25;101221.03;;;11.25;83.48
80333;BME280;69652;51.864;-2.246;2023-05-10T06:56:51;101224.63;;;11.39;82.43
80333;BME280;69652;51.864;-2.246;2023-05-10T06:59:16;101224.63;;;11.39;82.04
80333;BME280;69652;51.864;-2.246;2023-05-10T07:01:44;101220.84;;;11.54;82.23
80333;BME280;69652;51.864;-2.246;2023-05-10T07:04:09;101217.16;;;11.64;84.09
80333;BME280;69652;51.864;-2.246;2023-05-10T07:06:35;101212.81;;;11.63;83.77
80333;BME280;69652;51.864;-2.246;2023-05-10T07:09:01;101211.59;;;11.55;83.81
80333;BME280;69652;51.864;-2.246;2023-05-10T07:11:26;101214.78;;;11.57;85.55
80333;BME280;69652;51.864;-2.246;2023-05-10T07:13:52;101218.97;;;11.68;84.87
80333;BME280;69652;51.864;-2.246;2023-05-10T07:16:17;101219.06;;;11.63;83.14
80333;BME280;69652;51.864;-2.246;2023-05-10T07:18:43;101221.75;;;11.82;83.62
80333;BME280;69652;51.864;-2.246;2023-05-10T07:21:08;101217.13;;;11.96;83.24
80333;BME280;69652;51.864;-2.246;2023-05-10T07:23:33;101221.19;;;11.99;81.68
80333;BME280;69652;51.864;-2.246;2023-05-10T07:26:02;101219.28;;;12.13;83.15
80333;BME280;69652;51.864;-2.246;2023-05-10T07:28:27;101227.03;;;12.19;81.75
80333;BME280;69652;51.864;-2.246;2023-05-10T07:30:53;101224.75;;;12.26;83.38
80333;BME280;69652;51.864;-2.246;2023-05-10T07:33:18;101226.16;;;12.38;81.81
80333;BME280;69652;51.864;-2.246;2023-05-10T07:35:44;101232.88;;;12.54;81.31
80333;BME280;69652;51.864;-2.246;2023-05-10T07:38:10;101226.31;;;12.69;81.68
80333;BME280;69652;51.864;-2.246;2023-05-10T07:40:36;101241.34;;;12.66;80.47
80333;BME280;69652;51.864;-2.246;2023-05-10T07:43:03;101239.50;;;12.89;81.35
80333;BME280;69652;51.864;-2.246;2023-05-10T07:45:28;101234.44;;;12.96;79.51
80333;BME280;69652;51.864;-2.246;2023-05-10T07:47:54;101231.50;;;13.06;78.62
80333;BME280;69652;51.864;-2.246;2023-05-10T07:50:19;101235.31;;;13.19;78.17
80333;BME280;69652;51.864;-2.246;2023-05-10T07:52:46;101227.81;;;13.11;76.64
80333;BME280;69652;51.864;-2.246;2023-05-10T07:55:12;101238.41;;;13.26;78.86
80333;BME280;69652;51.864;-2.246;2023-05-10T07:57:38;101225.94;;;13.33;78.86
80333;BME280;69652;51.864;-2.246;2023-05-10T08:00:04;101225.53;;;13.40;77.29
80333;BME280;69652;51.864;-2.246;2023-05-10T08:02:30;101226.84;;;13.43;76.37
80333;BME280;69652;51.864;-2.246;2023-05-10T08:04:55;101230.50;;;13.38;78.00
80333;BME280;69652;51.864;-2.246;2023-05-10T08:07:21;101230.38;;;13.07;75.23
80333;BME280;69652;51.864;-2.246;2023-05-10T08:09:46;101227.75;;;13.16;78.48
80333;BME280;69652;51.864;-2.246;2023-05-10T08:12:12;101230.38;;;13.07;76.68
80333;BME280;69652;51.864;-2.246;2023-05-10T08:14:37;101226.13;;;13.15;78.95
80333;BME280;69652;51.864;-2.246;2023-05-10T08:17:03;101233.41;;;13.06;76.89
80333;BME280;69652;51.864;-2.246;2023-05-10T08:19:29;101228.13;;;13.23;78.31
80333;BME280;69652;51.864;-2.246;2023-05-10T08:21:54;101228.50;;;13.30;79.05
80333;BME280;69652;51.864;-2.246;2023-05-10T08:24:23;101229.44;;;13.25;77.67
80333;BME280;69652;51.864;-2.246;2023-05-10T08:26:49;101226.03;;;13.20;78.79
80333;BME280;69652;51.864;-2.246;2023-05-10T08:29:14;101231.84;;;13.13;77.84
80333;BME280;69652;51.864;-2.246;2023-05-10T08:31:40;101226.25;;;13.10;77.21
80333;BME280;69652;51.864;-2.246;2023-05-10T08:34:06;101231.91;;;12.99;76.80
80333;BME280;69652;51.864;-2.246;2023-05-10T08:36:31;101228.75;;;13.06;77.52
80333;BME280;69652;51.864;-2.246;2023-05-10T08:38:57;101235.69;;;13.26;77.52
80333;BME280;69652;51.864;-2.246;2023-05-10T08:41:24;101225.28;;;13.28;75.99
80333;BME280;69652;51.864;-2.246;2023-05-10T08:43:51;101229.75;;;13.46;77.44
80333;BME280;69652;51.864;-2.246;2023-05-10T08:46:19;101227.41;;;13.53;77.04
80333;BME280;69652;51.864;-2.246;2023-05-10T08:48:45;101222.59;;;13.59;74.15
80333;BME280;69652;51.864;-2.246;2023-05-10T08:51:22;101234.13;;;13.78;74.02
80333;BME280;69652;51.864;-2.246;2023-05-10T08:53:47;101229.72;;;13.91;74.56
80333;BME280;69652;51.864;-2.246;2023-05-10T08:56:13;101226.50;;;14.28;74.99
80333;BME280;69652;51.864;-2.246;2023-05-10T08:58:40;101229.47;;;14.40;75.57
80333;BME280;69652;51.864;-2.246;2023-05-10T09:01:07;101221.75;;;14.42;75.43
80333;BME280;69652;51.864;-2.246;2023-05-10T09:03:32;101227.47;;;14.32;74.20
80333;BME280;69652;51.864;-2.246;2023-05-10T09:05:58;101233.44;;;14.74;73.79
80333;BME280;69652;51.864;-2.246;2023-05-10T09:08:25;101228.59;;;14.71;74.81
80333;BME280;69652;51.864;-2.246;2023-05-10T09:10:51;101226.66;;;14.63;73.38
80333;BME280;69652;51.864;-2.246;2023-05-10T09:13:18;101222.50;;;14.74;73.59
80333;BME280;69652;51.864;-2.246;2023-05-10T09:15:44;101217.06;;;15.08;72.44
80333;BME280;69652;51.864;-2.246;2023-05-10T09:18:11;101224.75;;;15.24;73.98
80333;BME280;69652;51.864;-2.246;2023-05-10T09:20:36;101224.78;;;15.15;71.85
80333;BME280;69652;51.864;-2.246;2023-05-10T09:23:02;101221.22;;;15.14;73.32
80333;BME280;69652;51.864;-2.246;2023-05-10T09:25:27;101238.09;;;14.91;73.52
80333;BME280;69652;51.864;-2.246;2023-05-10T09:27:53;101228.91;;;14.78;71.74
80333;BME280;69652;51.864;-2.246;2023-05-10T09:30:27;101231.50;;;14.74;71.47
80333;BME280;69652;51.864;-2.246;2023-05-10T09:32:53;101230.72;;;14.91;71.94
80333;BME280;69652;51.864;-2.246;2023-05-10T09:35:22;101230.25;;;14.98;70.55
80333;BME280;69652;51.864;-2.246;2023-05-10T09:37:53;101233.25;;;14.88;71.34
80333;BME280;69652;51.864;-2.246;2023-05-10T09:40:23;101226.84;;;15.01;71.88
80333;BME280;69652;51.864;-2.246;2023-05-10T09:43:04;101226.53;;;15.28;71.54
80333;BME280;69652;51.864;-2.246;2023-05-10T09:45:32;101229.44;;;15.23;71.04
80333;BME280;69652;51.864;-2.246;2023-05-10T09:47:58;101220.94;;;15.33;72.52
80333;BME280;69652;51.864;-2.246;2023-05-10T09:50:25;101211.56;;;15.60;70.76
80333;BME280;69652;51.864;-2.246;2023-05-10T09:52:56;101223.63;;;15.76;67.80
80333;BME280;69652;51.864;-2.246;2023-05-10T09:55:45;101215.81;;;15.96;66.69
80333;BME280;69652;51.864;-2.246;2023-05-10T09:58:12;101213.75;;;16.31;66.90
80333;BME280;69652;51.864;-2.246;2023-05-10T10:00:40;101215.81;;;16.04;67.69
80333;BME280;69652;51.864;-2.246;2023-05-10T10:03:11;101214.63;;;15.67;68.23
80333;BME280;69652;51.864;-2.246;2023-05-10T10:05:40;101218.97;;;15.51;67.33
80333;BME280;69652;51.864;-2.246;2023-05-10T10:08:05;101213.19;;;15.44;68.57
80333;BME280;69652;51.864;-2.246;2023-05-10T10:10:32;101208.22;;;15.55;68.75
80333;BME280;69652;51.864;-2.246;2023-05-10T10:12:58;101211.72;;;15.64;66.38
80333;BME280;69652;51.864;-2.246;2023-05-10T10:15:25;101203.44;;;17.28;63.78
80333;BME280;69652;51.864;-2.246;2023-05-10T10:17:52;101208.16;;;17.40;64.35
80333;BME280;69652;51.864;-2.246;2023-05-10T10:20:19;101205.41;;;16.86;64.21
80333;BME280;69652;51.864;-2.246;2023-05-10T10:22:46;101195.59;;;17.39;62.25
80333;BME280;69652;51.864;-2.246;2023-05-10T10:25:13;101200.16;;;17.35;63.63
80333;BME280;69652;51.864;-2.246;2023-05-10T10:35:32;101199.81;;;15.51;66.63
80333;BME280;69652;51.864;-2.246;2023-05-10T10:37:58;101199.66;;;15.39;69.13
80333;BME280;69652;51.864;-2.246;2023-05-10T10:40:25;101210.28;;;14.89;70.57
80333;BME280;69652;51.864;-2.246;2023-05-10T10:42:51;101208.84;;;14.91;70.21
80333;BME280;69652;51.864;-2.246;2023-05-10T10:45:19;101203.22;;;14.96;71.95
80333;BME280;69652;51.864;-2.246;2023-05-10T10:47:45;101203.56;;;14.86;72.26
80333;BME280;69652;51.864;-2.246;2023-05-10T10:50:11;101207.22;;;14.73;73.02
80333;BME280;69652;51.864;-2.246;2023-05-10T10:52:44;101206.25;;;14.77;73.09
80333;BME280;69652;51.864;-2.246;2023-05-10T10:57:47;101196.16;;;15.30;72.23
80333;BME280;69652;51.864;-2.246;2023-05-10T11:03:04;101193.41;;;17.11;67.88
80333;BME280;69652;51.864;-2.246;2023-05-10T11:05:36;101183.13;;;17.08;66.58
80333;BME280;69652;51.864;-2.246;2023-05-10T11:08:26;101182.78;;;17.63;64.79
80333;BME280;69652;51.864;-2.246;2023-05-10T11:13:47;101185.00;;;16.75;65.94
80333;BME280;69652;51.864;-2.246;2023-05-10T11:16:17;101191.44;;;16.41;69.00
80333;BME280;69652;51.864;-2.246;2023-05-10T11:21:27;101192.75;;;16.05;71.41
80333;BME280;69652;51.864;-2.246;2023-05-10T11:23:55;101194.50;;;16.10;70.88
80333;BME280;69652;51.864;-2.246;2023-05-10T11:26:22;101196.03;;;15.90;72.11
80333;BME280;69652;51.864;-2.246;2023-05-10T11:28:53;101198.00;;;15.81;71.48
80333;BME280;69652;51.864;-2.246;2023-05-10T11:31:20;101203.66;;;15.50;71.43
80333;BME280;69652;51.864;-2.246;2023-05-10T11:33:49;101216.41;;;15.20;74.25
80333;BME280;69652;51.864;-2.246;2023-05-10T11:36:17;101209.81;;;15.12;74.70
80333;BME280;69652;51.864;-2.246;2023-05-10T11:38:43;101213.81;;;14.89;74.42
80333;BME280;69652;51.864;-2.246;2023-05-10T11:41:09;101219.09;;;14.60;76.40
80333;BME280;69652;51.864;-2.246;2023-05-10T11:43:37;101219.34;;;14.41;76.78
80333;BME280;69652;51.864;-2.246;2023-05-10T11:46:08;101222.41;;;14.39;77.13
80333;BME280;69652;51.864;-2.246;2023-05-10T11:48:35;101225.16;;;14.48;77.11
80333;BME280;69652;51.864;-2.246;2023-05-10T11:51:01;101209.16;;;14.81;77.24
80333;BME280;69652;51.864;-2.246;2023-05-10T11:53:31;101212.06;;;15.10;76.18
80333;BME280;69652;51.864;-2.246;2023-05-10T11:56:06;101204.00;;;15.40;75.11
80333;BME280;69652;51.864;-2.246;2023-05-10T11:58:33;101201.06;;;15.79;73.58
80333;BME280;69652;51.864;-2.246;2023-05-10T12:00:59;101200.47;;;16.12;73.25
80333;BME280;69652;51.864;-2.246;2023-05-10T12:03:26;101197.03;;;16.23;73.15
80333;BME280;69652;51.864;-2.246;2023-05-10T12:05:52;101194.50;;;16.10;72.95
80333;BME280;69652;51.864;-2.246;2023-05-10T12:08:24;101193.59;;;15.97;73.28
80333;BME280;69652;51.864;-2.246;2023-05-10T12:10:51;101187.84;;;16.28;71.97
80333;BME280;69652;51.864;-2.246;2023-05-10T12:13:18;101199.44;;;16.25;70.06
80333;BME280;69652;51.864;-2.246;2023-05-10T12:15:44;101191.34;;;16.29;70.16
80333;BME280;69652;51.864;-2.246;2023-05-10T12:18:10;101191.41;;;16.49;69.47
80333;BME280;69652;51.864;-2.246;2023-05-10T12:20:37;101180.19;;;16.92;68.94
80333;BME280;69652;51.864;-2.246;2023-05-10T12:23:02;101182.34;;;17.41;66.21
80333;BME280;69652;51.864;-2.246;2023-05-10T12:25:34;101183.19;;;18.11;65.78
80333;BME280;69652;51.864;-2.246;2023-05-10T12:28:02;101164.63;;;19.08;62.66
80333;BME280;69652;51.864;-2.246;2023-05-10T12:30:30;101159.56;;;19.82;60.40
80333;BME280;69652;51.864;-2.246;2023-05-10T12:35:31;101163.47;;;19.81;60.55
80333;BME280;69652;51.864;-2.246;2023-05-10T12:37:57;101168.78;;;18.90;63.82
80333;BME280;69652;51.864;-2.246;2023-05-10T12:40:23;101179.97;;;18.57;60.40
80333;BME280;69652;51.864;-2.246;2023-05-10T12:42:48;101172.63;;;18.86;62.03
80333;BME280;69652;51.864;-2.246;2023-05-10T12:45:14;101170.38;;;18.39;61.38
80333;BME280;69652;51.864;-2.246;2023-05-10T12:47:39;101177.13;;;18.05;63.12
80333;BME280;69652;51.864;-2.246;2023-05-10T12:50:06;101166.00;;;17.77;63.36
80333;BME280;69652;51.864;-2.246;2023-05-10T12:52:31;101165.09;;;17.52;63.80
80333;BME280;69652;51.864;-2.246;2023-05-10T12:54:58;101166.88;;;17.03;66.18
80333;BME280;69652;51.864;-2.246;2023-05-10T12:57:24;101161.94;;;17.29;64.99
80333;BME280;69652;51.864;-2.246;2023-05-10T12:59:50;101173.34;;;17.19;65.59
80333;BME280;69652;51.864;-2.246;2023-05-10T13:02:16;101168.81;;;17.03;66.27
80333;BME280;69652;51.864;-2.246;2023-05-10T13:04:44;101176.03;;;16.86;67.28
80333;BME280;69652;51.864;-2.246;2023-05-10T13:07:10;101191.63;;;16.74;67.92
80333;BME280;69652;51.864;-2.246;2023-05-10T13:09:35;101187.00;;;16.86;66.55
80333;BME280;69652;51.864;-2.246;2023-05-10T13:12:01;101191.41;;;17.00;67.02
80333;BME280;69652;51.864;-2.246;2023-05-10T13:14:27;101200.75;;;16.78;67.19
80333;BME280;69652;51.864;-2.246;2023-05-10T13:16:52;101197.75;;;17.33;65.46